Lansdowne, Pennsylvania
Current Conditions -  °F | °C
As of 11:38 AM on Monday 26 Jan 2015 (Local Time) from KPHL Reporting Station
Light Snow Light Snow  
Wind Chill: 18°   Ceiling: 1500
Heat Index: 30°   Visibility: 1.5mi
Dew Point: 25°   Wind: 18mph
Humidity: 82%   Direction: 40°NE
Pressure: 29.85"   Gusts: 25mph
Location:  39.94°N, 75.27°W
Report Text: KPHL 261638Z 04016G22KT 1 1/2SM -SN FEW013 OVC015 M01/M04 A2985 RMK AO2 P0000 T10111039
Loading
Personal Weather Stations






























Interactive Weather Map New forecast layout! Learn more

10-Day Weather Forecast

Advertisements
Track Severe Weather on mobile